sensor_id;sensor_type;location;lat;lon;timestamp;pressure;altitude;pressure_sealevel;temperature;humidity
43814;BME280;29669;55.706;37.656;2022-08-19T00:00:07;100535.94;;;23.74;40.45
43814;BME280;29669;55.706;37.656;2022-08-19T00:03:28;100534.78;;;23.70;40.44
43814;BME280;29669;55.706;37.656;2022-08-19T00:06:50;100541.00;;;23.64;40.50
43814;BME280;29669;55.706;37.656;2022-08-19T00:10:14;100540.31;;;23.57;40.91
43814;BME280;29669;55.706;37.656;2022-08-19T00:13:35;100548.72;;;23.54;40.93
43814;BME280;29669;55.706;37.656;2022-08-19T00:16:55;100545.34;;;23.47;41.05
43814;BME280;29669;55.706;37.656;2022-08-19T00:20:19;100539.69;;;23.44;41.04
43814;BME280;29669;55.706;37.656;2022-08-19T00:23:40;100554.66;;;23.38;41.04
43814;BME280;29669;55.706;37.656;2022-08-19T00:27:02;100561.44;;;23.34;41.08
43814;BME280;29669;55.706;37.656;2022-08-19T00:30:33;100554.97;;;23.30;41.38
43814;BME280;29669;55.706;37.656;2022-08-19T00:33:54;100555.88;;;23.24;41.28
43814;BME280;29669;55.706;37.656;2022-08-19T00:37:17;100558.38;;;23.19;41.37
43814;BME280;29669;55.706;37.656;2022-08-19T00:40:39;100564.38;;;23.14;41.60
43814;BME280;29669;55.706;37.656;2022-08-19T00:44:10;100569.50;;;23.09;41.69
43814;BME280;29669;55.706;37.656;2022-08-19T00:47:34;100562.03;;;23.06;41.84
43814;BME280;29669;55.706;37.656;2022-08-19T00:50:55;100571.22;;;23.04;41.77
43814;BME280;29669;55.706;37.656;2022-08-19T00:54:16;100571.69;;;23.01;41.97
43814;BME280;29669;55.706;37.656;2022-08-19T00:57:40;100585.16;;;22.99;41.97
43814;BME280;29669;55.706;37.656;2022-08-19T01:01:03;100590.63;;;22.98;42.05
43814;BME280;29669;55.706;37.656;2022-08-19T01:04:25;100593.75;;;22.95;41.95
43814;BME280;29669;55.706;37.656;2022-08-19T01:07:47;100602.34;;;22.90;42.03
43814;BME280;29669;55.706;37.656;2022-08-19T01:11:08;100598.97;;;22.83;42.32
43814;BME280;29669;55.706;37.656;2022-08-19T01:14:29;100601.69;;;22.77;42.37
43814;BME280;29669;55.706;37.656;2022-08-19T01:17:51;100607.06;;;22.70;42.31
43814;BME280;29669;55.706;37.656;2022-08-19T01:21:27;100610.47;;;22.59;42.46
43814;BME280;29669;55.706;37.656;2022-08-19T01:24:51;100600.00;;;22.46;42.52
43814;BME280;29669;55.706;37.656;2022-08-19T01:28:24;100600.91;;;22.33;42.71
43814;BME280;29669;55.706;37.656;2022-08-19T01:31:48;100601.88;;;22.21;42.85
43814;BME280;29669;55.706;37.656;2022-08-19T01:35:10;100602.59;;;22.10;43.10
43814;BME280;29669;55.706;37.656;2022-08-19T01:38:36;100599.63;;;22.00;43.42
43814;BME280;29669;55.706;37.656;2022-08-19T01:41:58;100600.69;;;21.92;43.63
43814;BME280;29669;55.706;37.656;2022-08-19T01:45:22;100595.25;;;21.87;43.54
43814;BME280;29669;55.706;37.656;2022-08-19T01:48:44;100600.97;;;21.84;43.66
43814;BME280;29669;55.706;37.656;2022-08-19T01:52:06;100599.34;;;21.83;43.68
43814;BME280;29669;55.706;37.656;2022-08-19T01:55:27;100591.66;;;21.82;43.74
43814;BME280;29669;55.706;37.656;2022-08-19T01:58:56;100589.78;;;21.82;43.86
43814;BME280;29669;55.706;37.656;2022-08-19T02:02:18;100587.75;;;21.84;43.84
43814;BME280;29669;55.706;37.656;2022-08-19T02:05:40;100576.97;;;21.86;43.84
43814;BME280;29669;55.706;37.656;2022-08-19T02:09:01;100563.75;;;21.86;43.82
43814;BME280;29669;55.706;37.656;2022-08-19T02:12:23;100565.59;;;21.85;43.90
43814;BME280;29669;55.706;37.656;2022-08-19T02:15:44;100605.84;;;21.87;44.01
43814;BME280;29669;55.706;37.656;2022-08-19T02:19:06;100613.69;;;21.94;43.89
43814;BME280;29669;55.706;37.656;2022-08-19T02:22:28;100609.81;;;21.96;43.89
43814;BME280;29669;55.706;37.656;2022-08-19T02:25:51;100618.78;;;21.95;43.86
43814;BME280;29669;55.706;37.656;2022-08-19T02:29:12;100617.75;;;21.96;43.68
43814;BME280;29669;55.706;37.656;2022-08-19T02:32:33;100614.06;;;21.97;43.77
43814;BME280;29669;55.706;37.656;2022-08-19T02:35:54;100617.13;;;22.01;43.79
43814;BME280;29669;55.706;37.656;2022-08-19T02:39:15;100610.16;;;22.06;43.72
43814;BME280;29669;55.706;37.656;2022-08-19T02:42:36;100620.28;;;22.09;43.69
43814;BME280;29669;55.706;37.656;2022-08-19T02:45:57;100620.66;;;22.13;43.59
43814;BME280;29669;55.706;37.656;2022-08-19T02:49:18;100617.59;;;22.16;43.65
43814;BME280;29669;55.706;37.656;2022-08-19T02:52:41;100620.59;;;22.19;43.67
43814;BME280;29669;55.706;37.656;2022-08-19T02:56:06;100629.13;;;22.21;43.48
43814;BME280;29669;55.706;37.656;2022-08-19T02:59:30;100631.78;;;22.21;43.60
43814;BME280;29669;55.706;37.656;2022-08-19T03:02:44;100621.78;;;22.23;43.21
43814;BME280;29669;55.706;37.656;2022-08-19T03:06:11;100631.31;;;22.24;43.21
43814;BME280;29669;55.706;37.656;2022-08-19T03:09:33;100627.88;;;22.24;43.31
43814;BME280;29669;55.706;37.656;2022-08-19T03:12:56;100625.44;;;22.22;43.55
43814;BME280;29669;55.706;37.656;2022-08-19T03:16:22;100623.47;;;22.18;43.61
43814;BME280;29669;55.706;37.656;2022-08-19T03:19:44;100634.47;;;22.15;43.87
43814;BME280;29669;55.706;37.656;2022-08-19T03:23:06;100636.28;;;22.14;43.93
43814;BME280;29669;55.706;37.656;2022-08-19T03:26:27;100639.34;;;22.18;43.98
43814;BME280;29669;55.706;37.656;2022-08-19T03:29:48;100644.19;;;22.21;44.26
43814;BME280;29669;55.706;37.656;2022-08-19T03:33:10;100641.91;;;22.24;44.15
43814;BME280;29669;55.706;37.656;2022-08-19T03:36:34;100635.16;;;22.28;44.19
43814;BME280;29669;55.706;37.656;2022-08-19T03:39:55;100632.50;;;22.28;44.25
43814;BME280;29669;55.706;37.656;2022-08-19T03:43:22;100631.91;;;22.26;44.43
43814;BME280;29669;55.706;37.656;2022-08-19T03:46:43;100631.91;;;22.26;44.37
43814;BME280;29669;55.706;37.656;2022-08-19T03:50:04;100627.00;;;22.30;44.28
43814;BME280;29669;55.706;37.656;2022-08-19T03:53:27;100629.00;;;22.34;44.49
43814;BME280;29669;55.706;37.656;2022-08-19T03:56:49;100635.03;;;22.41;44.32
43814;BME280;29669;55.706;37.656;2022-08-19T04:00:11;100625.34;;;22.54;44.12
43814;BME280;29669;55.706;37.656;2022-08-19T04:03:33;100629.13;;;22.64;43.97
43814;BME280;29669;55.706;37.656;2022-08-19T04:06:54;100626.56;;;22.76;44.01
43814;BME280;29669;55.706;37.656;2022-08-19T04:10:15;100632.16;;;22.86;43.81
43814;BME280;29669;55.706;37.656;2022-08-19T04:13:36;100640.06;;;23.04;43.49
43814;BME280;29669;55.706;37.656;2022-08-19T04:17:00;100647.78;;;23.23;43.13
43814;BME280;29669;55.706;37.656;2022-08-19T04:20:22;100649.50;;;23.48;42.96
43814;BME280;29669;55.706;37.656;2022-08-19T04:23:44;100642.75;;;23.63;42.73
43814;BME280;29669;55.706;37.656;2022-08-19T04:27:05;100646.81;;;23.77;42.55
43814;BME280;29669;55.706;37.656;2022-08-19T04:30:26;100649.16;;;23.85;42.34
43814;BME280;29669;55.706;37.656;2022-08-19T04:33:47;100642.47;;;23.94;42.27
43814;BME280;29669;55.706;37.656;2022-08-19T04:37:08;100654.53;;;24.08;42.27
43814;BME280;29669;55.706;37.656;2022-08-19T04:40:29;100652.47;;;24.22;41.92
43814;BME280;29669;55.706;37.656;2022-08-19T04:44:08;100660.63;;;24.44;41.15
43814;BME280;29669;55.706;37.656;2022-08-19T04:47:32;100657.41;;;24.53;41.24
43814;BME280;29669;55.706;37.656;2022-08-19T04:51:07;100653.16;;;24.75;41.14
43814;BME280;29669;55.706;37.656;2022-08-19T04:54:29;100645.59;;;24.95;40.52
43814;BME280;29669;55.706;37.656;2022-08-19T04:57:52;100649.50;;;25.04;40.48
43814;BME280;29669;55.706;37.656;2022-08-19T05:01:18;100649.38;;;25.11;40.53
43814;BME280;29669;55.706;37.656;2022-08-19T05:04:39;100652.59;;;25.13;40.40
43814;BME280;29669;55.706;37.656;2022-08-19T05:08:00;100643.56;;;25.14;40.20
43814;BME280;29669;55.706;37.656;2022-08-19T05:11:25;100644.16;;;25.16;40.04
43814;BME280;29669;55.706;37.656;2022-08-19T05:14:47;100646.81;;;25.16;40.30
43814;BME280;29669;55.706;37.656;2022-08-19T05:18:08;100644.72;;;25.18;40.20
43814;BME280;29669;55.706;37.656;2022-08-19T05:21:48;100652.78;;;25.23;40.09
43814;BME280;29669;55.706;37.656;2022-08-19T05:25:28;100652.97;;;25.33;40.27
43814;BME280;29669;55.706;37.656;2022-08-19T05:28:50;100651.78;;;25.52;39.93
43814;BME280;29669;55.706;37.656;2022-08-19T05:32:11;100649.88;;;25.64;39.76
43814;BME280;29669;55.706;37.656;2022-08-19T05:35:32;100647.22;;;25.64;39.50
43814;BME280;29669;55.706;37.656;2022-08-19T05:38:53;100651.09;;;25.73;39.46
43814;BME280;29669;55.706;37.656;2022-08-19T05:42:16;100649.13;;;25.85;39.49
43814;BME280;29669;55.706;37.656;2022-08-19T05:45:40;100649.72;;;26.04;38.88
43814;BME280;29669;55.706;37.656;2022-08-19T05:49:01;100650.31;;;26.23;39.07
43814;BME280;29669;55.706;37.656;2022-08-19T05:52:22;100654.72;;;26.34;38.84
43814;BME280;29669;55.706;37.656;2022-08-19T05:55:43;100659.09;;;26.40;38.66
43814;BME280;29669;55.706;37.656;2022-08-19T05:59:07;100656.47;;;26.45;38.31
43814;BME280;29669;55.706;37.656;2022-08-19T06:02:31;100652.44;;;26.59;38.03
43814;BME280;29669;55.706;37.656;2022-08-19T06:05:52;100653.31;;;26.48;38.22
43814;BME280;29669;55.706;37.656;2022-08-19T06:09:16;100652.78;;;26.46;38.22
43814;BME280;29669;55.706;37.656;2022-08-19T06:12:37;100653.00;;;26.61;38.22
43814;BME280;29669;55.706;37.656;2022-08-19T06:15:58;100659.97;;;26.83;38.01
43814;BME280;29669;55.706;37.656;2022-08-19T06:19:21;100660.34;;;27.14;37.41
43814;BME280;29669;55.706;37.656;2022-08-19T06:22:48;100660.41;;;27.40;36.99
43814;BME280;29669;55.706;37.656;2022-08-19T06:26:11;100665.06;;;27.55;37.12
43814;BME280;29669;55.706;37.656;2022-08-19T06:29:33;100662.59;;;27.75;36.65
43814;BME280;29669;55.706;37.656;2022-08-19T06:32:57;100660.97;;;28.01;36.34
43814;BME280;29669;55.706;37.656;2022-08-19T06:36:26;100663.97;;;28.09;36.13
43814;BME280;29669;55.706;37.656;2022-08-19T06:39:47;100660.00;;;28.12;36.23
43814;BME280;29669;55.706;37.656;2022-08-19T06:43:09;100657.31;;;28.12;36.16
43814;BME280;29669;55.706;37.656;2022-08-19T06:46:36;100651.31;;;28.31;35.78
43814;BME280;29669;55.706;37.656;2022-08-19T06:50:01;100650.94;;;28.54;35.66
43814;BME280;29669;55.706;37.656;2022-08-19T06:53:22;100660.38;;;28.67;35.17
43814;BME280;29669;55.706;37.656;2022-08-19T06:56:43;100657.94;;;28.65;35.10
43814;BME280;29669;55.706;37.656;2022-08-19T07:00:05;100643.00;;;28.69;35.01
43814;BME280;29669;55.706;37.656;2022-08-19T07:03:32;100659.28;;;28.63;35.06
43814;BME280;29669;55.706;37.656;2022-08-19T07:07:09;100666.66;;;28.51;34.94
43814;BME280;29669;55.706;37.656;2022-08-19T07:10:30;100658.09;;;28.49;35.16
43814;BME280;29669;55.706;37.656;2022-08-19T07:13:51;100654.97;;;28.57;34.90
43814;BME280;29669;55.706;37.656;2022-08-19T07:17:12;100654.28;;;28.76;34.79
43814;BME280;29669;55.706;37.656;2022-08-19T07:20:34;100648.22;;;29.01;34.69
43814;BME280;29669;55.706;37.656;2022-08-19T07:23:56;100652.84;;;29.21;34.12
43814;BME280;29669;55.706;37.656;2022-08-19T07:27:17;100651.78;;;29.32;33.85
43814;BME280;29669;55.706;37.656;2022-08-19T07:30:39;100649.97;;;29.57;33.50
43814;BME280;29669;55.706;37.656;2022-08-19T07:34:01;100656.72;;;29.75;33.19
43814;BME280;29669;55.706;37.656;2022-08-19T07:37:24;100667.44;;;29.90;32.86
43814;BME280;29669;55.706;37.656;2022-08-19T07:40:45;100669.84;;;29.92;32.57
43814;BME280;29669;55.706;37.656;2022-08-19T07:44:07;100666.34;;;30.06;32.51
43814;BME280;29669;55.706;37.656;2022-08-19T07:47:28;100676.50;;;30.14;31.96
43814;BME280;29669;55.706;37.656;2022-08-19T07:50:59;100666.84;;;30.13;31.75
43814;BME280;29669;55.706;37.656;2022-08-19T07:54:42;100669.53;;;30.23;31.55
43814;BME280;29669;55.706;37.656;2022-08-19T07:57:56;100676.81;;;30.28;31.54
43814;BME280;29669;55.706;37.656;2022-08-19T08:01:22;100674.34;;;30.21;31.88
43814;BME280;29669;55.706;37.656;2022-08-19T08:04:48;100679.47;;;30.18;31.74
43814;BME280;29669;55.706;37.656;2022-08-19T08:08:27;100680.81;;;30.10;31.52
43814;BME280;29669;55.706;37.656;2022-08-19T08:12:15;100672.22;;;30.18;31.68
43814;BME280;29669;55.706;37.656;2022-08-19T08:15:41;100675.44;;;30.35;31.50
43814;BME280;29669;55.706;37.656;2022-08-19T08:19:04;100677.25;;;30.65;31.23
43814;BME280;29669;55.706;37.656;2022-08-19T08:22:31;100673.53;;;30.56;31.00
43814;BME280;29669;55.706;37.656;2022-08-19T08:26:04;100675.16;;;30.42;31.58
43814;BME280;29669;55.706;37.656;2022-08-19T08:29:30;100678.91;;;30.36;31.31
43814;BME280;29669;55.706;37.656;2022-08-19T08:32:51;100684.56;;;30.24;31.58
43814;BME280;29669;55.706;37.656;2022-08-19T08:36:12;100684.28;;;30.26;31.37
43814;BME280;29669;55.706;37.656;2022-08-19T08:39:33;100686.94;;;30.46;31.18
43814;BME280;29669;55.706;37.656;2022-08-19T08:46:46;100679.97;;;30.50;30.89
43814;BME280;29669;55.706;37.656;2022-08-19T08:50:13;100682.34;;;30.62;30.84
43814;BME280;29669;55.706;37.656;2022-08-19T08:53:36;100687.44;;;30.63;30.53
43814;BME280;29669;55.706;37.656;2022-08-19T08:56:51;100679.13;;;30.65;30.46
43814;BME280;29669;55.706;37.656;2022-08-19T09:00:12;100682.59;;;30.75;30.42
43814;BME280;29669;55.706;37.656;2022-08-19T09:03:36;100690.41;;;30.62;30.29
43814;BME280;29669;55.706;37.656;2022-08-19T09:10:53;100687.47;;;30.23;30.56
43814;BME280;29669;55.706;37.656;2022-08-19T09:15:04;100689.38;;;30.02;30.86
43814;BME280;29669;55.706;37.656;2022-08-19T09:18:16;100687.78;;;30.01;30.87
43814;BME280;29669;55.706;37.656;2022-08-19T09:21:37;100687.47;;;30.08;30.35
43814;BME280;29669;55.706;37.656;2022-08-19T09:24:59;100686.69;;;30.02;30.31
43814;BME280;29669;55.706;37.656;2022-08-19T09:28:20;100696.09;;;30.00;30.57
43814;BME280;29669;55.706;37.656;2022-08-19T09:31:45;100692.88;;;30.28;30.26
43814;BME280;29669;55.706;37.656;2022-08-19T09:35:06;100698.22;;;30.43;30.05
43814;BME280;29669;55.706;37.656;2022-08-19T09:38:59;100694.13;;;30.60;30.02
43814;BME280;29669;55.706;37.656;2022-08-19T09:42:22;100700.84;;;30.63;29.39
43814;BME280;29669;55.706;37.656;2022-08-19T09:45:43;100687.41;;;30.68;29.26
43814;BME280;29669;55.706;37.656;2022-08-19T09:49:04;100701.09;;;30.72;28.82
43814;BME280;29669;55.706;37.656;2022-08-19T09:52:25;100704.59;;;30.67;28.34
43814;BME280;29669;55.706;37.656;2022-08-19T09:56:02;100693.06;;;30.62;27.72
43814;BME280;29669;55.706;37.656;2022-08-19T09:59:25;100710.50;;;30.59;27.39
43814;BME280;29669;55.706;37.656;2022-08-19T10:02:46;100698.75;;;30.45;26.98
43814;BME280;29669;55.706;37.656;2022-08-19T10:06:07;100702.22;;;30.50;26.77
43814;BME280;29669;55.706;37.656;2022-08-19T10:09:48;100702.41;;;30.74;26.63
43814;BME280;29669;55.706;37.656;2022-08-19T10:13:09;100706.44;;;30.67;26.55
43814;BME280;29669;55.706;37.656;2022-08-19T10:16:30;100709.97;;;30.52;25.72
43814;BME280;29669;55.706;37.656;2022-08-19T10:19:51;100719.94;;;30.31;25.03
43814;BME280;29669;55.706;37.656;2022-08-19T10:23:12;100715.34;;;30.22;24.76
43814;BME280;29669;55.706;37.656;2022-08-19T10:26:40;100726.88;;;30.32;24.78
43814;BME280;29669;55.706;37.656;2022-08-19T10:30:05;100721.78;;;30.46;24.46
43814;BME280;29669;55.706;37.656;2022-08-19T10:33:27;100729.81;;;30.56;24.12
43814;BME280;29669;55.706;37.656;2022-08-19T10:37:00;100716.94;;;30.58;23.44
43814;BME280;29669;55.706;37.656;2022-08-19T10:40:25;100723.09;;;30.64;23.52
43814;BME280;29669;55.706;37.656;2022-08-19T10:43:46;100720.94;;;30.60;23.28
43814;BME280;29669;55.706;37.656;2022-08-19T10:47:10;100730.03;;;30.65;23.21
43814;BME280;29669;55.706;37.656;2022-08-19T10:50:32;100724.44;;;30.61;23.33
43814;BME280;29669;55.706;37.656;2022-08-19T10:54:11;100729.53;;;30.52;23.00
43814;BME280;29669;55.706;37.656;2022-08-19T10:57:40;100726.06;;;30.52;22.74
43814;BME280;29669;55.706;37.656;2022-08-19T11:01:10;100734.38;;;30.40;22.62
43814;BME280;29669;55.706;37.656;2022-08-19T11:04:31;100731.44;;;30.32;22.86
43814;BME280;29669;55.706;37.656;2022-08-19T11:07:52;100727.97;;;30.31;22.70
43814;BME280;29669;55.706;37.656;2022-08-19T11:11:29;100718.28;;;30.45;22.76
43814;BME280;29669;55.706;37.656;2022-08-19T11:14:54;100722.25;;;30.73;22.66
43814;BME280;29669;55.706;37.656;2022-08-19T11:18:15;100716.59;;;31.00;22.57
43814;BME280;29669;55.706;37.656;2022-08-19T11:21:39;100710.91;;;31.11;22.09
43814;BME280;29669;55.706;37.656;2022-08-19T11:25:03;100716.28;;;31.11;21.79
43814;BME280;29669;55.706;37.656;2022-08-19T11:28:24;100705.50;;;31.16;22.10
43814;BME280;29669;55.706;37.656;2022-08-19T11:31:46;100711.34;;;31.28;22.04
43814;BME280;29669;55.706;37.656;2022-08-19T11:35:08;100710.03;;;31.26;21.77
43814;BME280;29669;55.706;37.656;2022-08-19T11:38:32;100708.44;;;31.20;21.75
43814;BME280;29669;55.706;37.656;2022-08-19T11:41:53;100709.22;;;31.25;21.63
43814;BME280;29669;55.706;37.656;2022-08-19T11:45:40;100707.53;;;31.34;21.81
43814;BME280;29669;55.706;37.656;2022-08-19T11:48:58;100710.25;;;31.39;21.73
43814;BME280;29669;55.706;37.656;2022-08-19T11:52:24;100702.50;;;31.23;22.08
43814;BME280;29669;55.706;37.656;2022-08-19T11:56:08;100713.19;;;31.33;22.26
43814;BME280;29669;55.706;37.656;2022-08-19T11:59:40;100713.94;;;31.48;22.20
43814;BME280;29669;55.706;37.656;2022-08-19T12:03:20;100704.31;;;31.42;22.22
43814;BME280;29669;55.706;37.656;2022-08-19T12:06:43;100700.31;;;31.79;22.36
43814;BME280;29669;55.706;37.656;2022-08-19T12:10:04;100698.66;;;31.93;22.09
43814;BME280;29669;55.706;37.656;2022-08-19T12:13:44;100701.81;;;32.00;22.47
43814;BME280;29669;55.706;37.656;2022-08-19T12:17:23;100693.41;;;32.06;22.78
43814;BME280;29669;55.706;37.656;2022-08-19T12:21:37;100692.06;;;32.09;23.05
43814;BME280;29669;55.706;37.656;2022-08-19T12:24:58;100686.09;;;32.12;23.13
43814;BME280;29669;55.706;37.656;2022-08-19T12:28:24;100691.34;;;32.27;23.22
43814;BME280;29669;55.706;37.656;2022-08-19T12:31:54;100673.25;;;32.37;23.09
43814;BME280;29669;55.706;37.656;2022-08-19T12:35:48;100694.13;;;32.17;23.23
43814;BME280;29669;55.706;37.656;2022-08-19T12:39:12;100687.38;;;31.91;23.59
43814;BME280;29669;55.706;37.656;2022-08-19T12:42:36;100693.94;;;32.08;23.62
43814;BME280;29669;55.706;37.656;2022-08-19T12:46:05;100689.56;;;32.46;23.31
43814;BME280;29669;55.706;37.656;2022-08-19T12:49:44;100669.34;;;33.38;22.20
43814;BME280;29669;55.706;37.656;2022-08-19T12:53:06;100681.25;;;33.88;21.64
43814;BME280;29669;55.706;37.656;2022-08-19T12:56:28;100684.75;;;34.21;21.43
43814;BME280;29669;55.706;37.656;2022-08-19T13:00:19;100683.56;;;34.27;21.30
43814;BME280;29669;55.706;37.656;2022-08-19T13:07:40;100692.13;;;34.61;21.16
43814;BME280;29669;55.706;37.656;2022-08-19T13:11:13;100683.91;;;34.52;21.28
43814;BME280;29669;55.706;37.656;2022-08-19T13:15:02;100689.13;;;34.49;21.47
43814;BME280;29669;55.706;37.656;2022-08-19T13:19:02;100686.75;;;34.74;21.21
43814;BME280;29669;55.706;37.656;2022-08-19T13:22:18;100690.13;;;34.07;21.64
43814;BME280;29669;55.706;37.656;2022-08-19T13:26:05;100686.28;;;33.01;22.91
43814;BME280;29669;55.706;37.656;2022-08-19T13:29:24;100690.19;;;32.38;23.73
43814;BME280;29669;55.706;37.656;2022-08-19T13:33:45;100693.78;;;31.56;24.44
43814;BME280;29669;55.706;37.656;2022-08-19T13:37:07;100698.78;;;31.19;25.14
43814;BME280;29669;55.706;37.656;2022-08-19T13:40:54;100700.19;;;31.06;25.17
43814;BME280;29669;55.706;37.656;2022-08-19T13:44:38;100706.13;;;30.93;25.10
43814;BME280;29669;55.706;37.656;2022-08-19T13:47:57;100706.34;;;31.07;25.03
43814;BME280;29669;55.706;37.656;2022-08-19T13:51:22;100699.66;;;31.04;25.07
43814;BME280;29669;55.706;37.656;2022-08-19T13:55:20;100704.28;;;30.89;25.39
43814;BME280;29669;55.706;37.656;2022-08-19T13:58:43;100705.44;;;30.52;25.87
43814;BME280;29669;55.706;37.656;2022-08-19T14:02:24;100703.81;;;30.21;26.28
43814;BME280;29669;55.706;37.656;2022-08-19T14:05:52;100709.44;;;29.85;26.37
43814;BME280;29669;55.706;37.656;2022-08-19T14:13:00;100705.69;;;29.76;26.93
43814;BME280;29669;55.706;37.656;2022-08-19T14:16:46;100714.25;;;30.53;26.33
43814;BME280;29669;55.706;37.656;2022-08-19T14:20:10;100713.16;;;30.84;25.73
43814;BME280;29669;55.706;37.656;2022-08-19T14:24:22;100702.97;;;30.66;25.83
43814;BME280;29669;55.706;37.656;2022-08-19T14:28:06;100714.28;;;29.98;26.50
43814;BME280;29669;55.706;37.656;2022-08-19T14:31:36;100721.38;;;29.47;27.51
43814;BME280;29669;55.706;37.656;2022-08-19T14:35:19;100719.41;;;29.17;27.80
43814;BME280;29669;55.706;37.656;2022-08-19T14:39:30;100719.34;;;29.07;27.84
43814;BME280;29669;55.706;37.656;2022-08-19T14:43:04;100722.75;;;28.93;28.39
43814;BME280;29669;55.706;37.656;2022-08-19T14:50:18;100722.38;;;28.69;28.66
43814;BME280;29669;55.706;37.656;2022-08-19T14:53:41;100720.19;;;28.61;28.91
43814;BME280;29669;55.706;37.656;2022-08-19T14:57:06;100713.91;;;28.45;28.96
43814;BME280;29669;55.706;37.656;2022-08-19T15:01:13;100731.97;;;28.33;29.23
43814;BME280;29669;55.706;37.656;2022-08-19T15:04:40;100735.91;;;28.26;29.64
43814;BME280;29669;55.706;37.656;2022-08-19T15:08:07;100737.81;;;28.30;29.56
43814;BME280;29669;55.706;37.656;2022-08-19T15:11:31;100731.75;;;28.40;29.38
43814;BME280;29669;55.706;37.656;2022-08-19T15:14:56;100727.66;;;28.64;29.39
43814;BME280;29669;55.706;37.656;2022-08-19T15:18:38;100723.28;;;29.51;28.14
43814;BME280;29669;55.706;37.656;2022-08-19T15:22:03;100729.78;;;29.91;27.79
43814;BME280;29669;55.706;37.656;2022-08-19T15:25:46;100728.03;;;29.39;28.14
43814;BME280;29669;55.706;37.656;2022-08-19T15:29:31;100737.94;;;28.82;29.13
43814;BME280;29669;55.706;37.656;2022-08-19T15:32:57;100735.25;;;28.45;29.33
43814;BME280;29669;55.706;37.656;2022-08-19T15:36:18;100750.13;;;28.31;29.37
43814;BME280;29669;55.706;37.656;2022-08-19T15:39:39;100761.00;;;28.25;29.91
43814;BME280;29669;55.706;37.656;2022-08-19T15:43:00;100756.66;;;28.14;29.91
43814;BME280;29669;55.706;37.656;2022-08-19T15:46:24;100759.19;;;27.99;29.93
43814;BME280;29669;55.706;37.656;2022-08-19T15:49:46;100772.69;;;27.92;30.36
43814;BME280;29669;55.706;37.656;2022-08-19T15:53:08;100762.78;;;27.87;30.13
43814;BME280;29669;55.706;37.656;2022-08-19T15:56:29;100767.56;;;27.85;30.44
43814;BME280;29669;55.706;37.656;2022-08-19T16:00:08;100772.78;;;27.75;30.12
43814;BME280;29669;55.706;37.656;2022-08-19T16:03:48;100766.28;;;27.66;30.60
43814;BME280;29669;55.706;37.656;2022-08-19T16:07:27;100777.16;;;27.60;30.54
43814;BME280;29669;55.706;37.656;2022-08-19T16:10:48;100779.94;;;27.48;30.72
43814;BME280;29669;55.706;37.656;2022-08-19T16:14:09;100789.19;;;27.41;31.07
43814;BME280;29669;55.706;37.656;2022-08-19T16:17:30;100785.56;;;27.30;30.87
43814;BME280;29669;55.706;37.656;2022-08-19T16:21:04;100789.63;;;27.16;31.10
43814;BME280;29669;55.706;37.656;2022-08-19T16:24:27;100785.22;;;27.05;31.62
43814;BME280;29669;55.706;37.656;2022-08-19T16:27:48;100788.50;;;26.90;31.76
43814;BME280;29669;55.706;37.656;2022-08-19T16:31:14;100787.94;;;26.72;31.57
43814;BME280;29669;55.706;37.656;2022-08-19T16:34:28;100787.69;;;26.57;31.87
43814;BME280;29669;55.706;37.656;2022-08-19T16:37:50;100789.03;;;26.43;32.06
43814;BME280;29669;55.706;37.656;2022-08-19T16:41:12;100793.63;;;26.31;32.16
43814;BME280;29669;55.706;37.656;2022-08-19T16:44:34;100791.75;;;26.15;32.47
43814;BME280;29669;55.706;37.656;2022-08-19T16:47:56;100802.34;;;25.98;32.40
43814;BME280;29669;55.706;37.656;2022-08-19T16:51:17;100813.97;;;25.80;32.57
43814;BME280;29669;55.706;37.656;2022-08-19T16:54:38;100813.59;;;25.60;32.79
43814;BME280;29669;55.706;37.656;2022-08-19T16:57:59;100819.63;;;25.44;33.18
43814;BME280;29669;55.706;37.656;2022-08-19T17:01:20;100833.81;;;25.27;33.29
43814;BME280;29669;55.706;37.656;2022-08-19T17:04:41;100836.97;;;25.12;33.43
43814;BME280;29669;55.706;37.656;2022-08-19T17:08:13;100849.47;;;25.00;33.60
43814;BME280;29669;55.706;37.656;2022-08-19T17:11:35;100843.91;;;24.90;33.73
43814;BME280;29669;55.706;37.656;2022-08-19T17:14:56;100853.69;;;24.89;34.02
43814;BME280;29669;55.706;37.656;2022-08-19T17:18:17;100848.16;;;24.91;33.95
43814;BME280;29669;55.706;37.656;2022-08-19T17:21:39;100844.00;;;24.83;33.76
43814;BME280;29669;55.706;37.656;2022-08-19T17:25:00;100851.16;;;24.71;33.96
43814;BME280;29669;55.706;37.656;2022-08-19T17:28:24;100844.16;;;24.59;33.93
43814;BME280;29669;55.706;37.656;2022-08-19T17:31:45;100846.56;;;24.49;34.01
43814;BME280;29669;55.706;37.656;2022-08-19T17:35:06;100839.50;;;24.43;34.17
43814;BME280;29669;55.706;37.656;2022-08-19T17:38:32;100849.97;;;24.38;34.03
43814;BME280;29669;55.706;37.656;2022-08-19T17:41:53;100848.69;;;24.28;34.02
43814;BME280;29669;55.706;37.656;2022-08-19T17:45:14;100852.13;;;24.17;33.92
43814;BME280;29669;55.706;37.656;2022-08-19T17:48:35;100853.25;;;24.10;34.07
43814;BME280;29669;55.706;37.656;2022-08-19T17:51:58;100859.59;;;24.09;33.99
43814;BME280;29669;55.706;37.656;2022-08-19T17:55:19;100862.31;;;24.02;33.87
43814;BME280;29669;55.706;37.656;2022-08-19T17:58:40;100858.75;;;23.90;34.12
43814;BME280;29669;55.706;37.656;2022-08-19T18:02:08;100862.91;;;23.86;33.87